Home > Products > Valid Products > TAF

000
FTUS41 KBUF 210700 AAA
TAFART
TAF AMD
KART 210716Z 2107/2206 00000KT 1/4SM FG BKN002
     FM211100 VRB03KT 4SM BR SCT002 OVC250
     FM211400 20004KT P6SM VCSH BKN040 OVC250
     FM211700 23005KT 6SM -SHRA VCTS OVC050CB
     FM212000 VRB03KT 6SM -SHRA BKN050
     FM220000 00000KT P6SM VCSH BKN050=



000
FTUS41 KBUF 210500
TAFROC
TAF
KROC 210537Z 2106/2206 VRB03KT P6SM BKN150
     FM210900 21004KT P6SM SCT040 BKN250
     FM211400 24005KT P6SM BKN050 BKN250
     FM211600 25006KT P6SM VCSH BKN050 BKN250
     FM220100 VRB04KT P6SM BKN070=



000
FTUS41 KBUF 210500
TAFBUF
TAF
KBUF 210537Z 2106/2206 21004KT P6SM BKN140
     FM210900 21005KT P6SM FEW025 SCT250
     FM211200 22005KT P6SM BKN035
     FM211500 24008KT P6SM VCSH BKN045 BKN250
     FM212000 25010KT P6SM VCSH BKN060
     FM220000 25005KT P6SM BKN060=



000
FTUS41 KBUF 210500
TAFJHW
TAF
KJHW 210537Z 2106/2206 19005KT P6SM SCT150
     FM210800 20004KT 1/2SM FG BKN003
     FM211300 22005KT P6SM FEW003 SCT025
     FM211400 24006KT P6SM BKN035
     FM211700 26008KT P6SM VCSH BKN050
     FM220100 VRB03KT P6SM BKN250
      AMD LTD TO CLD VIS AND WIND=



000
FTUS41 KBUF 210500
TAFART
TAF
KART 210537Z 2106/2206 00000KT P6SM BKN050
     FM210900 VRB03KT P6SM BKN040 OVC250
     FM211400 20004KT P6SM VCSH BKN040 OVC250
     FM211700 23005KT 6SM -SHRA VCTS OVC050CB
     FM212000 VRB03KT 6SM -SHRA BKN050
     FM220000 00000KT P6SM VCSH BKN050=



000
FTUS41 KBUF 210500
TAFIAG
TAF
KIAG 210537Z 2106/2206 21005KT P6SM BKN150
     FM210900 21005KT P6SM FEW025 SCT250
     FM211200 22005KT P6SM BKN035
     FM211500 24008KT P6SM VCSH BKN045 BKN250
     FM212000 25010KT P6SM VCSH BKN060
     FM220000 25005KT P6SM BKN060=



000
FTUS41 KBUF 210300 AAA
TAFBUF
TAF AMD
KBUF 210304Z 2103/2124 21005KT P6SM SCT100 BKN200
     FM210600 20005KT P6SM BKN070
     FM211100 20004KT P6SM VCSH BKN025
     FM211600 24010KT P6SM VCSH BKN040=



000
FTUS41 KBUF 210300 AAB
TAFART
TAF AMD
KART 210304Z 2103/2124 10004KT P6SM BKN080
     FM210800 VRB03KT P6SM VCSH SCT120 BKN200
     FM211700 21006KT 6SM -SHRA OVC035=



000
FTUS41 KBUF 210300 AAA
TAFIAG
TAF AMD
KIAG 210304Z 2103/2124 20005KT P6SM SCT120 BKN200
     FM210600 21004KT P6SM BKN070
     FM211100 21004KT P6SM VCSH BKN025
     FM211600 23008KT P6SM VCSH BKN040=



000
FTUS41 KBUF 210300 AAA
TAFJHW
TAF AMD
KJHW 210304Z 2103/2124 18005KT P6SM SCT002 BKN200
      TEMPO 2103/2107 2SM BR
     FM210700 20005KT 1/2SM FG BKN002
     FM211200 22006KT P6SM VCSH BKN015
     FM211700 26010KT P6SM VCSH BKN040
      AMD LTD TO CLD VIS AND WIND=



000
FTUS41 KBUF 210300 AAA
TAFROC
TAF AMD
KROC 210304Z 2103/2124 13004KT P6SM SCT120 OVC200
     FM210900 21004KT P6SM VCSH SCT040 BKN070
     FM211300 22004KT P6SM VCSH BKN030
     FM211600 23004KT P6SM VCSH BKN040=



000
FTUS41 KBUF 210200 AAA
TAFART
TAF AMD
KART 210202Z 2102/2124 08005KT P6SM -RA SCT035 OVC100
     FM210300 09004KT P6SM BKN100
     FM210800 VRB03KT P6SM VCSH OVC040
     FM211700 21006KT 6SM -SHRA OVC035=



000
FTUS41 KBUF 202300
TAFJHW
TAF
KJHW 202327Z 2100/2124 21005KT P6SM VCSH SCT035 OVC070
     FM210200 20004KT P6SM BKN080
     FM210600 21005KT 4SM BR VCSH BKN050
     FM211000 22006KT P6SM VCSH BKN015
     FM211700 26010KT P6SM VCSH BKN040
      AMD LTD TO CLD VIS AND WIND=



000
FTUS41 KBUF 202300
TAFART
TAF
KART 202327Z 2100/2124 00000KT 3SM -RA BR SCT035 OVC080
     FM210300 10004KT 6SM -SHRA BKN035
     FM210800 VRB03KT P6SM VCSH OVC040
     FM211700 21006KT 6SM -SHRA OVC035=



000
FTUS41 KBUF 202300
TAFBUF
TAF
KBUF 202327Z 2100/2124 18004KT P6SM VCSH OVC045
     FM210100 19004KT P6SM SCT040 BKN090
     FM210600 20005KT P6SM VCSH BKN050
     FM211100 20004KT P6SM VCSH BKN025
     FM211600 24010KT P6SM VCSH BKN040=



000
FTUS41 KBUF 202300
TAFIAG
TAF
KIAG 202327Z 2100/2124 18006KT P6SM VCSH OVC050
     FM210100 20005KT P6SM SCT040 BKN080
     FM210600 21004KT P6SM VCSH BKN050
     FM211100 21004KT P6SM VCSH BKN025
     FM211600 23008KT P6SM VCSH BKN040=



000
FTUS41 KBUF 202300
TAFROC
TAF
KROC 202327Z 2100/2124 14006KT P6SM OVC035
     FM210300 18004KT P6SM VCSH SCT040 OVC090
     FM210900 21004KT P6SM VCSH SCT040 BKN070
     FM211300 22004KT P6SM VCSH BKN030
     FM211600 23004KT P6SM VCSH BKN040=



000
FTUS41 KBUF 202100 AAA
TAFART
TAF AMD
KART 202108Z 2021/2118 34004KT P6SM -SHRA OVC040
      TEMPO 2021/2023 3SM TSRA BKN030CB
     FM210600 13004KT 5SM -SHRA BR OVC050
     FM211100 15004KT 5SM BR VCSH OVC030
     FM211300 18004KT 6SM -SHRA OVC030=



000
FTUS41 KBUF 202100 AAA
TAFBUF
TAF AMD
KBUF 202108Z 2021/2118 24007KT P6SM SCT040 BKN100
     FM210100 18004KT P6SM VCSH BKN120
     FM210600 21005KT 5SM BR VCSH BKN100
     FM211000 22005KT 5SM BR VCSH BKN025
     FM211300 23006KT P6SM VCSH BKN025
     FM211500 24007KT P6SM VCSH BKN035=



000
FTUS41 KBUF 202100 AAA
TAFIAG
TAF AMD
KIAG 202108Z 2021/2118 19007KT P6SM SCT040 BKN080
     FM210100 VRB03KT P6SM VCSH BKN130
     FM210600 21004KT 5SM BR VCSH OVC090
     FM211000 22004KT 5SM BR VCSH BKN035
     FM211300 23005KT P6SM VCSH BKN030
     FM211500 25006KT P6SM VCSH BKN035=



000
FTUS41 KBUF 202100 AAA
TAFROC
TAF AMD
KROC 202108Z 2021/2118 16008KT P6SM OVC120
     FM210100 14005KT P6SM VCSH BKN050
     FM210600 21005KT 5SM BR VCSH BKN070
     FM211200 22005KT P6SM VCSH OVC045
     FM211400 24006KT 6SM -SHRA BKN035=



000
FTUS41 KBUF 202100 AAA
TAFJHW
TAF AMD
KJHW 202108Z 2021/2118 18005KT P6SM BKN025
     FM210100 21004KT P6SM VCSH SCT040 BKN110
     FM210600 21005KT 5SM BR VCSH BKN100
     FM211000 22006KT 5SM BR VCSH BKN020
     FM211300 23007KT P6SM VCSH BKN025
     FM211700 26009KT P6SM VCSH BKN035
      AMD LTD TO CLD VIS AND WIND=



000
FTUS41 KBUF 201700
TAFART
TAF
KART 201734Z 2018/2118 26007KT P6SM VCSH SCT025
     FM201900 25005KT 6SM -SHRA VCTS BKN035CB
     FM202100 00000KT 5SM -SHRA VCTS OVC060CB
     FM210600 13004KT 5SM -SHRA BR OVC050
     FM211100 15004KT 5SM BR VCSH OVC030
     FM211300 18004KT 6SM -SHRA OVC030=



000
FTUS41 KBUF 201700
TAFBUF
TAF
KBUF 201734Z 2018/2118 22009KT P6SM VCSH BKN035
     FM202000 22007KT P6SM VCTS BKN060CB
     FM210100 18004KT P6SM VCSH BKN120
     FM210600 21005KT 5SM BR VCSH BKN100
     FM211000 22005KT 5SM BR VCSH BKN025
     FM211300 23006KT P6SM VCSH BKN025
     FM211500 24007KT P6SM VCSH BKN035=



000
FTUS41 KBUF 201700
TAFROC
TAF
KROC 201734Z 2018/2118 19005KT P6SM VCSH SCT035 OVC120
     FM202000 VRB03KT 6SM -SHRA VCTS OVC060CB
     FM202300 13004KT P6SM VCTS BKN045CB
     FM210100 14005KT P6SM VCSH BKN050
     FM210600 21005KT 5SM BR VCSH BKN070
     FM211200 22005KT P6SM VCSH OVC045
     FM211400 24006KT 6SM -SHRA BKN035=



000
FTUS41 KBUF 201700
TAFIAG
TAF
KIAG 201734Z 2018/2118 22009KT P6SM VCSH SCT035
     FM202000 19007KT P6SM VCTS BKN060CB
     FM210100 VRB03KT P6SM VCSH BKN130
     FM210600 21004KT 5SM BR VCSH OVC090
     FM211000 22004KT 5SM BR VCSH BKN035
     FM211300 23005KT P6SM VCSH BKN030
     FM211500 25006KT P6SM VCSH BKN035=



000
FTUS41 KBUF 201700
TAFJHW
TAF
KJHW 201734Z 2018/2118 18007KT P6SM VCSH SCT013 BKN030
     FM201900 19006KT P6SM VCTS BKN035CB
     FM210100 21004KT P6SM VCSH BKN110
     FM210600 21005KT 5SM BR VCSH BKN100
     FM211000 22006KT 5SM BR VCSH BKN020
     FM211300 23007KT P6SM VCSH BKN025
     FM211700 26009KT P6SM VCSH BKN035
      AMD LTD TO CLD VIS AND WIND=



000
FTUS41 KBUF 201500 AAA
TAFBUF
TAF AMD
KBUF 201517Z 2015/2112 20010KT P6SM VCSH BKN110
     FM201700 21008KT 6SM -SHRA VCTS SCT040CB OVC060
     FM202200 21008KT P6SM VCSH OVC060
     FM210800 19005KT P6SM BKN035=



000
FTUS41 KBUF 201500 AAA
TAFJHW
TAF AMD
KJHW 201517Z 2015/2112 18008KT P6SM VCSH SCT012 OVC025
     FM201700 20008KT 4SM -SHRA VCTS SCT040CB OVC060
     FM202100 19006KT P6SM VCSH BKN045
     FM210800 VRB03KT P6SM BKN025
      AMD LTD TO CLD VIS AND WIND=



000
FTUS41 KBUF 201500 AAA
TAFART
TAF AMD
KART 201517Z 2015/2112 22005KT P6SM SCT025
     FM201700 VRB05KT P6SM VCSH BKN070
     FM201900 VRB05KT 6SM -SHRA VCTS SCT040CB BKN060
     FM202300 VRB03KT 6SM -SHRA OVC060
     FM210900 VRB03KT P6SM VCSH BKN035=



000
FTUS41 KBUF 201500 AAA
TAFROC
TAF AMD
KROC 201517Z 2015/2112 18003KT P6SM VCSH BKN090
     FM201700 18005KT 5SM -SHRA VCTS SCT040CB OVC060
     FM210000 15005KT P6SM VCSH BKN060
     FM210900 20005KT P6SM BKN035=



000
FTUS41 KBUF 201500 AAA
TAFIAG
TAF AMD
KIAG 201517Z 2015/2112 19008KT P6SM VCSH BKN110
     FM201700 20008KT 6SM -SHRA VCTS SCT040CB OVC060
     FM202200 21008KT P6SM VCSH OVC060
     FM210800 19005KT P6SM BKN035=



000
FTUS41 KBUF 201100
TAFIAG
TAF
KIAG 201140Z 2012/2112 20004KT P6SM VCSH SCT100 BKN140
     FM201500 18006KT 4SM SHRA VCTS SCT040CB OVC060
     FM202000 20009KT P6SM VCSH BKN060 OVC250
     FM210200 18004KT 4SM SHRA OVC070
     FM210400 18004KT 6SM -SHRA OVC060
     FM210800 VRB03KT P6SM BKN035=



000
FTUS41 KBUF 201100
TAFART
TAF
KART 201140Z 2012/2112 08003KT P6SM SKC
     FM201600 VRB03KT P6SM VCSH BKN070 BKN250
     FM201800 00000KT 6SM -SHRA SCT040 BKN060
     FM202300 15004KT 4SM SHRA SCT040 OVC050
     FM210900 VRB04KT P6SM VCSH BKN040=



000
FTUS41 KBUF 201100
TAFROC
TAF
KROC 201140Z 2012/2112 00000KT 6SM BR VCSH BKN080 OVC200
     FM201600 17005KT 4SM SHRA VCTS SCT040CB OVC050
     FM210000 15005KT 4SM -SHRA SCT040 BKN060
     FM210500 18004KT 4SM SHRA BKN060
     FM210900 19004KT P6SM BKN045=



000
FTUS41 KBUF 201100
TAFBUF
TAF
KBUF 201140Z 2012/2112 00000KT P6SM VCSH BKN100 BKN200
     FM201500 19006KT 4SM SHRA VCTS SCT040CB OVC060
     FM201900 21009KT 6SM BR VCSH SCT040 BKN060
     FM210300 18005KT 4SM SHRA OVC070
     FM210500 19006KT 6SM -SHRA BKN080
     FM210800 19005KT P6SM BKN035=



000
FTUS41 KBUF 201100
TAFJHW
TAF
KJHW 201140Z 2012/2112 18005KT P6SM BKN120
     FM201400 18007KT 4SM SHRA VCTS SCT040CB OVC060
     FM202000 19008KT P6SM VCSH BKN045 OVC250
     FM202300 19005KT 4SM -SHRA BKN025
     FM210500 19004KT 6SM -SHRA BKN040
     FM210800 VRB03KT P6SM BKN025
      AMD LTD TO CLD VIS AND WIND=



000
FTUS41 KBUF 200900 AAA
TAFROC
TAF AMD
KROC 200910Z 2009/2106 VRB03KT P6SM BKN200
     FM201100 17004KT 6SM BR VCSH OVC060
     FM201600 17005KT 4SM SHRA VCTS SCT040CB OVC050
     FM210000 15005KT 4SM -SHRA SCT040 BKN060
     FM210500 18004KT 4SM SHRA BKN060=



000
FTUS41 KBUF 200900 AAA
TAFIAG
TAF AMD
KIAG 200910Z 2009/2106 15003KT P6SM VCSH OVC070
     FM201100 16004KT 6SM -SHRA OVC070
     FM201500 18006KT 4SM SHRA VCTS SCT040CB OVC060
     FM202000 20009KT P6SM VCSH BKN060 OVC250
     FM210200 18004KT 4SM SHRA OVC070
     FM210400 18004KT 6SM -SHRA OVC060=



000
FTUS41 KBUF 200900 AAA
TAFART
TAF AMD
KART 200910Z 2009/2106 VRB04KT P6SM FEW200
     FM201200 12004KT P6SM BKN070
     FM201600 VRB03KT P6SM VCSH BKN070 BKN250
     FM201800 00000KT 6SM -SHRA SCT040 BKN060
     FM202300 15004KT 4SM SHRA SCT040 OVC050=



000
FTUS41 KBUF 200900 AAA
TAFJHW
TAF AMD
KJHW 200910Z 2009/2106 18006KT 6SM -SHRA OVC070
     FM201400 18007KT 4SM SHRA VCTS SCT040CB OVC060
     FM202000 19008KT P6SM VCSH BKN045 OVC250
     FM202300 19005KT 4SM -SHRA BKN025
     FM210500 19004KT 6SM -SHRA BKN070
      AMD LTD TO CLD VIS AND WIND=



000
FTUS41 KBUF 200900 AAA
TAFBUF
TAF AMD
KBUF 200910Z 2009/2106 15003KT P6SM VCSH BKN090
     FM201100 17006KT 6SM -SHRA OVC070
     FM201500 19006KT 4SM SHRA VCTS SCT040CB OVC060
     FM201900 21009KT 6SM BR VCSH SCT040 BKN060
     FM210300 18005KT 4SM SHRA OVC070
     FM210500 19006KT 6SM -SHRA BKN080=



000
FTUS41 KBUF 200500
TAFART
TAF
KART 200531Z 2006/2106 VRB03KT P6SM SKC
     FM200800 13004KT P6SM FEW200
     FM201200 12004KT P6SM BKN070
     FM201600 VRB03KT P6SM VCSH BKN070 BKN250
     FM201800 00000KT 6SM -SHRA SCT040 BKN060
     FM202300 15004KT 4SM SHRA SCT040 OVC050=



000
FTUS41 KBUF 200500
TAFJHW
TAF
KJHW 200531Z 2006/2106 20007KT P6SM -SHRA BKN050
     FM200800 18006KT P6SM VCSH OVC070
     FM201400 18007KT 4SM SHRA VCTS SCT040CB OVC060
     FM202000 19008KT P6SM VCSH BKN045 OVC250
     FM202300 19005KT 4SM -SHRA BKN025
     FM210500 19004KT 6SM -SHRA BKN070
      AMD LTD TO CLD VIS AND WIND=



000
FTUS41 KBUF 200500
TAFROC
TAF
KROC 200531Z 2006/2106 VRB03KT P6SM BKN200
     FM201100 17004KT 6SM BR VCSH OVC060
     FM201600 17005KT 4SM SHRA VCTS SCT040CB OVC050
     FM210000 15005KT 4SM -SHRA SCT040 BKN060
     FM210500 18004KT 4SM SHRA BKN060=



000
FTUS41 KBUF 200500
TAFIAG
TAF
KIAG 200531Z 2006/2106 15007KT P6SM VCSH OVC070
     FM201100 16004KT 6SM -SHRA OVC070
     FM201500 18006KT 4SM SHRA VCTS SCT040CB OVC060
     FM202000 20009KT P6SM VCSH BKN060 OVC250
     FM210200 18004KT 4SM SHRA OVC070
     FM210400 18004KT 6SM -SHRA OVC060=



000
FTUS41 KBUF 200500
TAFBUF
TAF
KBUF 200531Z 2006/2106 15006KT P6SM VCSH BKN090
     FM201100 17006KT 6SM -SHRA OVC070
     FM201500 19006KT 4SM SHRA VCTS SCT040CB OVC060
     FM201900 21009KT 6SM BR VCSH SCT040 BKN060
     FM210300 18005KT 4SM SHRA OVC070
     FM210500 19006KT 6SM -SHRA BKN080=



000
FTUS41 KBUF 200300 AAA
TAFJHW
TAF AMD
KJHW 200301Z 2003/2024 16004KT P6SM BKN120
     FM200430 21008KT 3SM SHRA VCTS BKN025CB
     FM200630 17005KT P6SM VCSH OVC070
     FM201100 18006KT 6SM -SHRA OVC050
     FM201300 19008KT 4SM SHRA OVC035
     FM201800 20009KT 6SM -SHRA OVC030
     FM202000 20009KT P6SM VCSH BKN030
      AMD LTD TO CLD VIS AND WIND=



000
FTUS41 KBUF 200300 AAA
TAFART
TAF AMD
KART 200301Z 2003/2024 10004KT P6SM SKC
     FM201100 12004KT P6SM BKN150
     FM201500 16006KT P6SM BKN080
     FM201800 19006KT P6SM -SHRA OVC060
     FM202200 18007KT 4SM SHRA OVC040=



000
FTUS41 KBUF 200300 AAA
TAFROC
TAF AMD
KROC 200301Z 2003/2024 VRB03KT P6SM BKN200
     FM200700 17004KT 6SM -SHRA OVC060
     FM200900 19005KT P6SM VCSH OVC070
     FM201600 17006KT 4SM SHRA VCTS OVC040CB
     FM202000 23007KT 6SM -SHRA OVC040=



000
FTUS41 KBUF 200300 AAA
TAFIAG
TAF AMD
KIAG 200301Z 2003/2024 11006KT P6SM BKN150
     FM200500 23013KT 3SM SHRA VCTS BKN035CB
     FM200630 15004KT P6SM VCSH OVC070
     FM201100 17006KT 6SM -SHRA OVC050
     FM201400 18008KT 4SM SHRA OVC040
     FM201800 22010KT 6SM -SHRA OVC050
     FM202000 21010KT P6SM VCSH OVC050=



000
FTUS41 KBUF 200300 AAA
TAFBUF
TAF AMD
KBUF 200301Z 2003/2024 12006KT P6SM BKN150
     FM200500 23013KT 3SM SHRA VCTS BKN035CB
     FM200630 18005KT P6SM VCSH OVC070
     FM201100 18006KT 6SM -SHRA OVC050
     FM201400 19008KT 4SM SHRA OVC040
     FM201800 22009KT 6SM -SHRA OVC050
     FM202000 22009KT P6SM VCSH OVC050=



000
FTUS41 KBUF 192300
TAFART
TAF
KART 192320Z 2000/2024 03004KT P6SM SCT050
     FM200300 VRB03KT P6SM SCT250
     FM201100 12004KT P6SM BKN120
     FM201500 16006KT P6SM BKN080
     FM201800 19006KT P6SM -SHRA OVC060
     FM202200 18007KT 4SM SHRA OVC040=



000
FTUS41 KBUF 192300
TAFBUF
TAF
KBUF 192320Z 2000/2024 VRB04KT P6SM SCT250
     FM200300 12004KT P6SM BKN200
     FM200700 18005KT 6SM -SHRA OVC070
     FM201400 19008KT 4SM SHRA OVC040
     FM201800 22009KT 6SM -SHRA OVC050
     FM202000 22009KT P6SM VCSH OVC050=



000
FTUS41 KBUF 192300
TAFIAG
TAF
KIAG 192320Z 2000/2024 05005KT P6SM SCT250
     FM200300 09004KT P6SM BKN200
     FM200700 15004KT 6SM -SHRA OVC070
     FM201400 18008KT 4SM SHRA OVC040
     FM201800 22010KT 6SM -SHRA OVC050
     FM202000 21010KT P6SM VCSH OVC050=



000
FTUS41 KBUF 192300
TAFROC
TAF
KROC 192320Z 2000/2024 03005KT P6SM SKC
     FM200300 VRB03KT P6SM BKN250
     FM200700 17004KT P6SM BKN120
     FM200900 19005KT P6SM -SHRA OVC070
     FM201600 17006KT 4SM SHRA VCTS OVC040CB
     FM202000 23007KT 6SM -SHRA OVC040=



000
FTUS41 KBUF 192300
TAFJHW
TAF
KJHW 192320Z 2000/2024 07004KT P6SM SCT250
     FM200300 16004KT P6SM BKN150
     FM200700 17005KT P6SM -SHRA OVC070
     FM201300 19008KT 4SM SHRA OVC035
     FM201800 20009KT 6SM -SHRA OVC030
     FM202000 20009KT P6SM VCSH BKN030
      AMD LTD TO CLD VIS AND WIND=



000
FTUS41 KBUF 192100 AAA
TAFJHW
TAF AMD
KJHW 192107Z 1921/2018 23005KT P6SM SCT035 SCT250
     FM200000 06004KT P6SM BKN100
     FM200300 13005KT P6SM BKN070
     FM200700 17006KT P6SM -SHRA BKN050
     FM201000 18005KT 5SM SHRA OVC040
     FM201400 19009KT 3SM SHRA OVC040
      AMD LTD TO CLD VIS AND WIND=



000
FTUS41 KBUF 192100 AAA
TAFART
TAF AMD
KART 192107Z 1921/2018 03004KT P6SM SCT040
     FM200900 VRB03KT P6SM BKN120
     FM201200 12004KT P6SM BKN090
     FM201600 17006KT P6SM VCSH BKN070=



000
FTUS41 KBUF 192100 AAA
TAFBUF
TAF AMD
KBUF 192107Z 1921/2018 16005KT P6SM SCT250
     FM200000 05005KT P6SM BKN120
     FM200200 12005KT P6SM BKN080
     FM200700 17005KT P6SM -SHRA BKN070
     FM201000 19005KT 5SM -SHRA OVC040
     FM201500 19008KT 3SM SHRA OVC040=



000
FTUS41 KBUF 192100 AAA
TAFIAG
TAF AMD
KIAG 192107Z 1921/2018 04004KT P6SM SCT250
     FM200000 06006KT P6SM BKN120
     FM200300 11005KT P6SM BKN080
     FM200700 15004KT P6SM -SHRA BKN060
     FM201000 19004KT 5SM SHRA OVC040
     FM201500 19008KT 3SM SHRA OVC040=



000
FTUS41 KBUF 192100 AAB
TAFROC
TAF AMD
KROC 192107Z 1921/2018 04008KT P6SM SCT040 SCT250
     FM200200 08004KT P6SM BKN120
     FM200500 VRB03KT P6SM BKN080
     FM201100 19005KT P6SM -SHRA OVC060
     FM201400 17005KT 5SM SHRA OVC045
     FM201700 16006KT 3SM SHRA OVC040=



000
FTUS41 KBUF 191900 AAA
TAFROC
TAF AMD
KROC 191935Z 1920/2018 02012KT P6SM SCT035 SCT250
     FM192100 05008KT P6SM SCT040 SCT250
     FM200200 08004KT P6SM BKN120
     FM200500 VRB03KT P6SM BKN080
     FM201100 19005KT P6SM -SHRA OVC060
     FM201400 17005KT 5SM SHRA OVC045
     FM201700 16006KT 3SM SHRA OVC040=



000
FTUS41 KBUF 191700
TAFBUF
TAF
KBUF 191730Z 1918/2018 23006KT P6SM SCT040 SCT250
     FM192200 02006KT P6SM SCT120
     FM200000 05005KT P6SM BKN120
     FM200200 12005KT P6SM BKN080
     FM200700 17005KT P6SM -SHRA BKN070
     FM201000 19005KT 5SM -SHRA OVC040
     FM201500 19008KT 3SM SHRA OVC040=



000
FTUS41 KBUF 191700
TAFART
TAF
KART 191730Z 1918/2018 VRB04KT P6SM SCT250
     FM200900 VRB03KT P6SM BKN120
     FM201200 12004KT P6SM BKN090
     FM201600 17006KT P6SM VCSH BKN070=



000
FTUS41 KBUF 191700
TAFROC
TAF
KROC 191730Z 1918/2018 06005KT P6SM SCT035 SCT150
     FM192100 07008KT P6SM SCT040 SCT250
     FM200200 08004KT P6SM BKN120
     FM200500 VRB03KT P6SM BKN080
     FM201100 19005KT P6SM -SHRA OVC060
     FM201400 17005KT 5SM SHRA OVC045
     FM201700 16006KT 3SM SHRA OVC040=



000
FTUS41 KBUF 191700
TAFJHW
TAF
KJHW 191730Z 1918/2018 26004KT P6SM SCT035 SCT250
     FM192200 04004KT P6SM SCT120
     FM200000 06004KT P6SM BKN100
     FM200300 13005KT P6SM BKN070
     FM200700 17006KT P6SM -SHRA BKN050
     FM201000 18005KT 5SM SHRA OVC040
     FM201400 19009KT 3SM SHRA OVC040
      AMD LTD TO CLD VIS AND WIND=



000
FTUS41 KBUF 191700
TAFIAG
TAF
KIAG 191730Z 1918/2018 VRB04KT P6SM SCT040 SCT250
     FM192100 04006KT P6SM SCT120
     FM200000 06006KT P6SM BKN120
     FM200300 11005KT P6SM BKN080
     FM200700 15004KT P6SM -SHRA BKN060
     FM201000 19004KT 5SM SHRA OVC040
     FM201500 19008KT 3SM SHRA OVC040=



000
FTUS41 KBUF 191500 AAA
TAFROC
TAF AMD
KROC 191507Z 1915/2012 14005KT P6SM SCT035 SCT250
     FM191900 06008KT P6SM SCT040 SCT250
     FM192100 06008KT P6SM SCT250
     FM200300 VRB03KT P6SM SCT150
     FM200600 VRB03KT P6SM BKN100=



000
FTUS41 KBUF 191500 AAA
TAFART
TAF AMD
KART 191507Z 1915/2012 VRB04KT P6SM SKC
     FM200100 05004KT P6SM FEW060
     FM200400 09004KT P6SM SCT060
     FM200800 11004KT P6SM BKN060=



000
FTUS41 KBUF 191500 AAA
TAFJHW
TAF AMD
KJHW 191507Z 1915/2012 22005KT P6SM SCT250
     FM192000 33004KT P6SM BKN120
     FM200100 VRB03KT P6SM BKN080
     FM200400 12004KT P6SM BKN100
     FM200700 17004KT P6SM VCSH BKN100
      AMD LTD TO CLD VIS AND WIND=



000
FTUS41 KBUF 191500 AAA
TAFIAG
TAF AMD
KIAG 191507Z 1915/2012 18004KT P6SM SCT250
     FM191900 05007KT P6SM BKN120
     FM200200 08005KT P6SM BKN080
     FM200500 12004KT P6SM BKN090
     FM200800 VRB03KT P6SM VCSH BKN100=



000
FTUS41 KBUF 191500 AAA
TAFBUF
TAF AMD
KBUF 191507Z 1915/2012 25006KT P6SM SCT250
     FM192000 05006KT P6SM BKN120
     FM200200 08005KT P6SM BKN090
     FM200500 14004KT P6SM BKN100
     FM201000 VRB03KT P6SM VCSH OVC100=



000
FTUS41 KBUF 191100
TAFJHW
TAF
KJHW 191121Z 1912/2012 VRB03KT 6SM BR FEW003
     FM191300 VRB03KT P6SM FEW250
     FM192000 33004KT P6SM SCT250
     FM200100 VRB03KT P6SM BKN080
     FM200400 12004KT P6SM BKN100
     FM200700 17004KT P6SM VCSH BKN100
      AMD LTD TO CLD VIS AND WIND=



000
FTUS41 KBUF 191100
TAFBUF
TAF
KBUF 191121Z 1912/2012 VRB03KT P6SM FEW030 SCT060
     FM191400 VRB03KT P6SM FEW250
     FM192000 05006KT P6SM SCT250
     FM200200 08005KT P6SM BKN090
     FM200500 14004KT P6SM BKN100
     FM201000 VRB03KT P6SM VCSH OVC100=



000
FTUS41 KBUF 191100
TAFIAG
TAF
KIAG 191121Z 1912/2012 06004KT P6SM FEW060
     FM191400 05007KT P6SM SCT250
     FM200200 08005KT P6SM BKN080
     FM200500 12004KT P6SM BKN090
     FM200800 VRB03KT P6SM VCSH BKN100=



000
FTUS41 KBUF 191100
TAFART
TAF
KART 191121Z 1912/2012 VRB03KT P6SM FEW250
     FM200100 05004KT P6SM FEW060
     FM200400 09004KT P6SM SCT060
     FM200800 11004KT P6SM BKN060=



000
FTUS41 KBUF 191100
TAFROC
TAF
KROC 191121Z 1912/2012 VRB03KT P6SM SCT050
     FM191400 09005KT P6SM SCT045
     FM191900 06008KT P6SM SCT050
     FM192100 06008KT P6SM SCT250
     FM200300 VRB03KT P6SM SCT150
     FM200600 VRB03KT P6SM BKN100=



000
FTUS41 KBUF 190900 AAA
TAFBUF
TAF AMD
KBUF 190902Z 1909/2006 11005KT P6SM SCT050
     FM191100 VRB03KT P6SM SCT250
     FM192000 05006KT P6SM SCT250
     FM200200 08005KT P6SM BKN100
     FM200500 13004KT P6SM BKN060=



000
FTUS41 KBUF 190900 AAA
TAFJHW
TAF AMD
KJHW 190902Z 1909/2006 VRB03KT 4SM BR FEW003
      TEMPO 1909/1912 1/2SM FG BKN003
     FM191300 VRB03KT P6SM FEW250
     FM192000 31004KT P6SM SCT250
     FM192300 36004KT P6SM SCT250
     FM200300 12004KT P6SM BKN060
      AMD LTD TO CLD VIS AND WIND=



000
FTUS41 KBUF 190900 AAA
TAFIAG
TAF AMD
KIAG 190902Z 1909/2006 08005KT P6SM FEW050
     FM191400 06005KT P6SM FEW250
     FM192000 05008KT P6SM SCT250
     FM200200 08005KT P6SM BKN080
     FM200500 12004KT P6SM BKN060=



000
FTUS41 KBUF 190900 AAA
TAFROC
TAF AMD
KROC 190902Z 1909/2006 VRB03KT P6SM SCT250
     FM191500 09006KT P6SM SCT250
     FM191900 06008KT P6SM SCT250
     FM200200 08004KT P6SM SCT250
     FM200500 VRB03KT P6SM BKN250=



000
FTUS41 KBUF 190900 AAA
TAFART
TAF AMD
KART 190902Z 1909/2006 VRB03KT P6SM FEW250
     FM200000 05004KT P6SM FEW250
     FM200400 09004KT P6SM SCT250=



000
FTUS41 KBUF 190500
TAFROC
TAF
KROC 190539Z 1906/2006 VRB03KT P6SM FEW250
     FM191100 VRB03KT P6SM SCT250
     FM191500 09006KT P6SM SCT250
     FM191900 06008KT P6SM SCT250
     FM200200 08004KT P6SM SCT250
     FM200500 VRB03KT P6SM BKN250=



000
FTUS41 KBUF 190500
TAFJHW
TAF
KJHW 190539Z 1906/2006 VRB03KT 4SM BR FEW003
      TEMPO 1907/1911 1/2SM FG BKN003
     FM191300 VRB03KT P6SM FEW250
     FM192000 31004KT P6SM SCT250
     FM192300 36004KT P6SM SCT250
     FM200300 12004KT P6SM BKN060
      AMD LTD TO CLD VIS AND WIND=



000
FTUS41 KBUF 190500
TAFART
TAF
KART 190539Z 1906/2006 VRB03KT P6SM FEW250
     FM200000 05004KT P6SM FEW250
     FM200400 09004KT P6SM SCT250=



000
FTUS41 KBUF 190500
TAFIAG
TAF
KIAG 190539Z 1906/2006 VRB03KT P6SM FEW250
     FM191400 06005KT P6SM FEW250
     FM192000 05008KT P6SM SCT250
     FM200200 08005KT P6SM BKN080
     FM200500 12004KT P6SM BKN060=



000
FTUS41 KBUF 190500
TAFBUF
TAF
KBUF 190539Z 1906/2006 09005KT P6SM FEW250
     FM191100 VRB03KT P6SM SCT250
     FM192000 05006KT P6SM SCT250
     FM200200 08005KT P6SM BKN100
     FM200500 13004KT P6SM BKN060=



000
FTUS41 KBUF 190200 AAA
TAFART
TAF AMD
KART 190257Z 1903/1924 VRB03KT P6SM SCT200
     FM191400 01005KT P6SM SKC=



000
FTUS41 KBUF 190200 AAA
TAFBUF
TAF AMD
KBUF 190257Z 1903/1924 VRB03KT P6SM SKC
     FM191000 VRB05KT P6SM SCT040
     FM192000 04006KT P6SM BKN080=



000
FTUS41 KBUF 190200 AAA
TAFROC
TAF AMD
KROC 190257Z 1903/1924 VRB03KT P6SM SKC
     FM190900 13004KT P6SM SCT035
     FM191200 07006KT P6SM BKN040
     FM191800 04008KT P6SM SCT040=



000
FTUS41 KBUF 190200 AAA
TAFJHW
TAF AMD
KJHW 190257Z 1903/1924 VRB03KT P6SM SKC
     FM190500 11003KT 6SM BR SCT060
     FM190700 13003KT 3SM BR BKN030
     FM191400 VRB03KT P6SM SCT040
     FM191800 34005KT P6SM BKN080
      AMD LTD TO CLD VIS AND WIND=



000
FTUS41 KBUF 190200 AAA
TAFIAG
TAF AMD
KIAG 190257Z 1903/1924 VRB03KT P6SM SKC
     FM191000 08006KT P6SM SCT040
     FM191900 02010KT P6SM BKN080=



000
FTUS41 KBUF 182300
TAFBUF
TAF
KBUF 182320Z 1900/1924 05006KT P6SM SKC
     FM190300 VRB03KT P6SM SKC
     FM191400 04005KT P6SM SCT040=



000
FTUS41 KBUF 182300
TAFIAG
TAF
KIAG 182320Z 1900/1924 03006KT P6SM SKC
     FM190300 VRB03KT P6SM SKC
     FM191400 08006KT P6SM SCT040
     FM191900 02010KT P6SM SCT040=



000
FTUS41 KBUF 182300
TAFJHW
TAF
KJHW 182320Z 1900/1924 VRB03KT P6SM SKC
     FM190600 11004KT 3SM BR SCT030
     FM191300 VRB03KT P6SM BKN035
     FM191800 34005KT P6SM SCT040
      AMD LTD TO CLD VIS AND WIND=



000
FTUS41 KBUF 182300
TAFROC
TAF
KROC 182320Z 1900/1924 05005KT P6SM SKC
     FM190200 VRB03KT P6SM SKC
     FM191000 13004KT P6SM SCT035
     FM191400 07006KT P6SM BKN040=



000
FTUS41 KBUF 182300
TAFART
TAF
KART 182320Z 1900/1924 VRB03KT P6SM SCT200
     FM191400 01005KT P6SM SKC=



000
FTUS41 KBUF 182000 AAA
TAFJHW
TAF AMD
KJHW 182028Z 1820/1918 36006KT P6SM SCT030 SCT200
     FM190000 05003KT P6SM SCT250
     FM190800 11004KT P6SM BKN035
      AMD LTD TO CLD VIS AND WIND=



000
FTUS41 KBUF 182000 AAA
TAFROC
TAF AMD
KROC 182028Z 1820/1918 06005KT P6SM FEW035 SCT200
     FM190000 09004KT P6SM SKC
     FM190800 VRB03KT P6SM SCT250
     FM191300 12004KT P6SM BKN035
     FM191700 09007KT P6SM SCT045=



000
FTUS41 KBUF 182000 AAA
TAFIAG
TAF AMD
KIAG 182028Z 1820/1918 01010KT P6SM FEW035 SCT200
     FM190000 06005KT P6SM SCT250
     FM190900 VRB03KT P6SM SCT250
     FM191200 08004KT P6SM SCT250=



000
FTUS41 KBUF 182000 AAA
TAFART
TAF AMD
KART 182028Z 1820/1918 25006KT P6SM SCT200
     FM190000 VRB03KT P6SM SKC
     FM191200 01003KT P6SM SCT200=



000
FTUS41 KBUF 182000 AAA
TAFBUF
TAF AMD
KBUF 182028Z 1820/1918 03006KT P6SM FEW040 SCT200
     FM190000 05006KT P6SM SCT250
     FM190400 10004KT P6SM SCT250
     FM191600 VRB03KT P6SM SCT250=



000
FTUS41 KBUF 181700
TAFART
TAF
KART 181738Z 1818/1918 33005KT P6SM FEW040 SCT200
     FM182000 28007KT P6SM FEW040 FEW200
     FM190000 VRB03KT P6SM FEW250
     FM191200 01003KT P6SM SCT200=



000
FTUS41 KBUF 181700
TAFBUF
TAF
KBUF 181738Z 1818/1918 03005KT P6SM FEW035 SCT110
     FM190000 05007KT P6SM FEW250
     FM190400 10004KT P6SM FEW250
     FM191600 VRB03KT P6SM SCT250=



000
FTUS41 KBUF 181700
TAFROC
TAF
KROC 181738Z 1818/1918 03004KT P6SM SCT035 SCT250
     FM190000 09004KT P6SM SKC
     FM190800 VRB03KT P6SM FEW250
     FM191300 12004KT P6SM BKN035
     FM191700 09007KT P6SM SCT045=



000
FTUS41 KBUF 181700
TAFIAG
TAF
KIAG 181738Z 1818/1918 05005KT P6SM SCT030 SCT110
     FM190200 08004KT P6SM FEW250
     FM190900 VRB03KT P6SM FEW250
     FM191200 08004KT P6SM SCT250=



000
FTUS41 KBUF 181700
TAFJHW
TAF
KJHW 181738Z 1818/1918 02005KT P6SM SCT035 SCT150
     FM190400 09003KT P6SM FEW250
     FM190800 11004KT P6SM BKN035
      AMD LTD TO CLD VIS AND WIND=



000
FTUS41 KBUF 181500 AAA
TAFART
TAF AMD
KART 181513Z 1815/1912 01004KT P6SM FEW025 SCT130
     FM181600 33005KT P6SM FEW040 SCT200
     FM182000 28007KT P6SM FEW040 FEW200
     FM190000 VRB03KT P6SM FEW250=



000
FTUS41 KBUF 181500 AAA
TAFROC
TAF AMD
KROC 181513Z 1815/1912 02005KT P6SM BKN030
     FM181700 03004KT P6SM FEW030 SCT250
     FM190000 09004KT P6SM SKC
     FM190800 VRB03KT P6SM FEW250=



000
FTUS41 KBUF 181500 AAB
TAFJHW
TAF AMD
KJHW 181513Z 1815/1912 VRB05KT P6SM FEW002 FEW040
     FM181700 02005KT P6SM FEW040 SCT150
     FM190400 09003KT P6SM FEW250
      AMD LTD TO CLD VIS AND WIND=



000
FTUS41 KBUF 181500 AAA
TAFBUF
TAF AMD
KBUF 181513Z 1815/1912 03005KT P6SM FEW035 SCT110
     FM190000 05007KT P6SM FEW250
     FM190400 10004KT P6SM FEW250=



000
FTUS41 KBUF 181500 AAA
TAFIAG
TAF AMD
KIAG 181513Z 1815/1912 05005KT P6SM FEW025 SCT110
     FM190200 08004KT P6SM FEW250
     FM190900 VRB03KT P6SM FEW250=



000
FTUS41 KBUF 181400 AAA
TAFJHW
TAF AMD
KJHW 181403Z 1814/1912 VRB03KT 1/4SM FG OVC002
     FM181435 VRB03KT 1/2SM FG OVC003
     FM181500 VRB05KT P6SM FEW002 FEW040
     FM181700 02005KT P6SM FEW040 SCT150
     FM190400 09003KT P6SM FEW250
      AMD LTD TO CLD VIS AND WIND=



000
FTUS41 KBUF 181100
TAFIAG
TAF
KIAG 181139Z 1812/1912 04005KT P6SM FEW025 SCT110
     FM190200 08004KT P6SM FEW250
     FM190900 VRB03KT P6SM FEW250=



000
FTUS41 KBUF 181100
TAFART
TAF
KART 181139Z 1812/1912 01004KT P6SM FEW025 SCT130
     FM181600 33005KT P6SM FEW040 SCT200
     FM182000 28007KT P6SM FEW040 FEW200
     FM190000 VRB03KT P6SM FEW250=



000
FTUS41 KBUF 181100
TAFBUF
TAF
KBUF 181139Z 1812/1912 03005KT P6SM FEW035 SCT110
     FM190000 05007KT P6SM FEW250
     FM190400 10004KT P6SM FEW250=



000
FTUS41 KBUF 181100
TAFROC
TAF
KROC 181139Z 1812/1912 02005KT P6SM FEW025 SCT080
     FM181600 03004KT P6SM FEW040 SCT250
     FM190000 09004KT P6SM SKC
     FM190800 VRB03KT P6SM FEW250=



000
FTUS41 KBUF 181100
TAFJHW
TAF
KJHW 181139Z 1812/1912 00000KT 1/4SM FG BKN003
      TEMPO 1812/1813 1SM BR
     FM181300 VRB03KT 1SM BR BKN007
     FM181400 VRB03KT P6SM SCT015 BKN040
     FM181700 02005KT P6SM FEW040 SCT150
     FM190400 09003KT P6SM FEW250
      AMD LTD TO CLD VIS AND WIND=



000
FTUS41 KBUF 181100 AAB
TAFJHW
TAF AMD
KJHW 181102Z 1811/1906 VRB03KT 1SM BR OVC002
      TEMPO 1811/1812 1/4SM FG
     FM181230 VRB03KT 2SM BR BKN007
     FM181330 VRB03KT P6SM FEW007 SCT020
     FM181600 02005KT P6SM FEW040 SCT250
     FM190200 05004KT P6SM FEW250
      AMD LTD TO CLD VIS AND WIND=



000
FTUS41 KBUF 180900 AAA
TAFBUF
TAF AMD
KBUF 180917Z 1809/1906 02005KT P6SM SCT020 SCT035
     FM181300 04006KT P6SM SCT040 SCT250
      TEMPO 1813/1817 BKN040
     FM190200 09005KT P6SM FEW250=



000
FTUS41 KBUF 180900 AAA
TAFJHW
TAF AMD
KJHW 180917Z 1809/1906 VRB03KT 1SM BR OVC002
     FM181200 VRB03KT 2SM BR BKN007
     FM181300 VRB03KT P6SM FEW007 SCT020
     FM181600 02005KT P6SM FEW040 SCT250
     FM190200 05004KT P6SM FEW250
      AMD LTD TO CLD VIS AND WIND=



000
FTUS41 KBUF 180900 AAA
TAFART
TAF AMD
KART 180917Z 1809/1906 VRB03KT P6SM SCT025 BKN035
     FM181400 35006KT P6SM FEW040 SCT250
     FM181800 30006KT P6SM FEW040 SCT250
     FM190000 VRB03KT P6SM FEW250=



000
FTUS41 KBUF 180900 AAA
TAFROC
TAF AMD
KROC 180917Z 1809/1906 32006KT P6SM SCT025 BKN040
     FM181400 02006KT P6SM FEW040 SCT250
     FM182300 06005KT P6SM FEW250=



000
FTUS41 KBUF 180900 AAA
TAFIAG
TAF AMD
KIAG 180917Z 1809/1906 02004KT P6SM SCT025 SCT035
     FM181300 03006KT P6SM SCT040 SCT250
      TEMPO 1813/1817 BKN040
     FM190100 07004KT P6SM FEW250=



    US Dept of Commerce
    National Oceanic and Atmospheric Administration
    National Weather Service
    1325 East West Highway
    Silver Spring, MD 20910
    Page Author: NWS Internet Services Team
Disclaimer
Information Quality
Credits
Glossary
Privacy Policy
Freedom of Information Act (FOIA)
About Us
Career Opportunities